Time;durP1;ratioP1;P1;durP2;ratioP2;P2;SDS_P1;SDS_P2;PMS_P1;PMS_P2;Temp;Humidity;BMP_temperature;BMP_pressure;BME280_temperature;BME280_humidity;BME280_pressure;Samples;Min_cycle;Max_cycle;Signal;HPM_P1;HPM_P2
2022/03/30 00:00:21;;;;;;;10.40;7.60;;;;;;;;;;5085395;28;20031;-86
2022/03/30 00:02:47;;;;;;;15.80;8.95;;;;;;;;;;5084291;28;20163;-87
2022/03/30 00:05:12;;;;;;;13.80;8.20;;;;;;;;;;5084219;28;20463;-86
2022/03/30 00:07:38;;;;;;;14.48;8.88;;;;;;;;;;5082971;28;20033;-85
2022/03/30 00:10:04;;;;;;;15.85;9.35;;;;;;;;;;5085401;28;20084;-85
2022/03/30 00:12:30;;;;;;;13.73;8.48;;;;;;;;;;5079599;28;20024;-85
2022/03/30 00:14:56;;;;;;;18.23;10.45;;;;;;;;;;5080741;28;20115;-85
2022/03/30 00:17:22;;;;;;;15.52;9.73;;;;;;;;;;5080927;28;20114;-85
2022/03/30 00:19:48;;;;;;;17.42;9.18;;;;;;;;;;5084459;28;20099;-86
2022/03/30 00:22:13;;;;;;;19.33;9.18;;;;;;;;;;5084686;28;20028;-85
2022/03/30 00:24:39;;;;;;;20.25;9.70;;;;;;;;;;5085302;28;20520;-85
2022/03/30 00:27:07;;;;;;;12.75;9.25;;;;;;;;;;5079397;28;20032;-85
2022/03/30 00:29:34;;;;;;;20.38;9.10;;;;;;;;;;5083883;28;20013;-86
2022/03/30 00:32:00;;;;;;;12.65;9.43;;;;;;;;;;5084074;28;20019;-86
2022/03/30 00:34:25;;;;;;;15.13;9.63;;;;;;;;;;5086602;28;20073;-85
2022/03/30 00:36:51;;;;;;;15.30;9.15;;;;;;;;;;5083356;28;20028;-87
2022/03/30 00:39:17;;;;;;;14.13;8.80;;;;;;;;;;5088656;28;20028;-86
2022/03/30 00:41:43;;;;;;;17.80;9.15;;;;;;;;;;5082420;28;20051;-87
2022/03/30 00:44:11;;;;;;;18.13;9.25;;;;;;;;;;5086965;28;20024;-85
2022/03/30 00:46:37;;;;;;;14.07;8.57;;;;;;;;;;5083066;28;20031;-87
2022/03/30 00:49:04;;;;;;;19.60;10.30;;;;;;;;;;5080577;28;20107;-86
2022/03/30 00:51:30;;;;;;;15.02;9.70;;;;;;;;;;5077925;28;20503;-86
2022/03/30 00:53:56;;;;;;;17.10;9.07;;;;;;;;;;5085774;28;20027;-85
2022/03/30 00:56:21;;;;;;;14.45;9.00;;;;;;;;;;5080812;28;20031;-85
2022/03/30 00:58:47;;;;;;;16.10;9.40;;;;;;;;;;5080970;28;20024;-85
2022/03/30 01:01:14;;;;;;;13.20;8.93;;;;;;;;;;5079606;28;20020;-86
2022/03/30 01:03:39;;;;;;;16.17;9.52;;;;;;;;;;5081890;28;20498;-85
2022/03/30 01:06:05;;;;;;;13.35;8.50;;;;;;;;;;5081116;28;20111;-85
2022/03/30 01:08:30;;;;;;;20.52;9.35;;;;;;;;;;5084607;28;20058;-85
2022/03/30 01:10:57;;;;;;;13.85;10.32;;;;;;;;;;5080477;28;20058;-84
2022/03/30 01:13:23;;;;;;;19.50;9.98;;;;;;;;;;5082596;28;20037;-83
2022/03/30 01:15:49;;;;;;;23.25;10.90;;;;;;;;;;5088383;28;20474;-85
2022/03/30 01:18:15;;;;;;;15.32;9.90;;;;;;;;;;5086190;28;20040;-84
2022/03/30 01:20:41;;;;;;;19.63;10.05;;;;;;;;;;5083931;28;20020;-84
2022/03/30 01:23:07;;;;;;;21.55;9.40;;;;;;;;;;5080437;28;20028;-84
2022/03/30 01:25:32;;;;;;;18.75;10.00;;;;;;;;;;5079831;28;20055;-85
2022/03/30 01:27:59;;;;;;;19.05;9.90;;;;;;;;;;5084921;28;20032;-85
2022/03/30 01:33:12;;;;;;;18.90;9.55;;;;;;;;;;5083860;28;20092;-85
2022/03/30 01:35:38;;;;;;;21.63;10.50;;;;;;;;;;5082035;28;20392;-84
2022/03/30 01:38:03;;;;;;;14.88;9.07;;;;;;;;;;5081112;28;20035;-85
2022/03/30 01:40:29;;;;;;;15.48;10.02;;;;;;;;;;5078947;28;20135;-85
2022/03/30 01:42:54;;;;;;;19.92;9.98;;;;;;;;;;5077165;28;20111;-84
2022/03/30 01:45:20;;;;;;;16.15;9.82;;;;;;;;;;5083611;28;20047;-84
2022/03/30 01:47:55;;;;;;;18.85;9.10;;;;;;;;;;5078911;28;20512;-85
2022/03/30 01:50:22;;;;;;;19.92;10.13;;;;;;;;;;5084313;28;20033;-87
2022/03/30 01:52:47;;;;;;;13.25;8.65;;;;;;;;;;5083310;28;20027;-86
2022/03/30 01:55:14;;;;;;;17.30;10.13;;;;;;;;;;5081552;28;20069;-85
2022/03/30 01:57:40;;;;;;;15.85;8.95;;;;;;;;;;5083068;28;20052;-85
2022/03/30 02:00:07;;;;;;;16.40;10.25;;;;;;;;;;5082236;28;20060;-83
2022/03/30 02:02:33;;;;;;;14.65;8.73;;;;;;;;;;5080469;28;20025;-83
2022/03/30 02:04:58;;;;;;;21.45;9.82;;;;;;;;;;5079774;28;20020;-84
2022/03/30 02:07:24;;;;;;;16.77;9.80;;;;;;;;;;5079046;28;20496;-83
2022/03/30 02:09:49;;;;;;;18.45;10.02;;;;;;;;;;5080338;28;20028;-84
2022/03/30 02:12:15;;;;;;;15.05;9.02;;;;;;;;;;5079113;28;20111;-85
2022/03/30 02:14:41;;;;;;;20.45;10.25;;;;;;;;;;5081744;28;20028;-85
2022/03/30 02:17:07;;;;;;;15.95;9.40;;;;;;;;;;5081225;28;20471;-85
2022/03/30 02:19:32;;;;;;;16.88;9.88;;;;;;;;;;5081065;28;20028;-86
2022/03/30 02:21:58;;;;;;;16.85;10.50;;;;;;;;;;5079423;28;20028;-86
2022/03/30 02:24:24;;;;;;;19.58;10.60;;;;;;;;;;5080436;28;20043;-85
2022/03/30 02:26:50;;;;;;;16.02;10.32;;;;;;;;;;5082119;28;20027;-86
2022/03/30 02:29:16;;;;;;;16.40;9.63;;;;;;;;;;5082975;28;20095;-84
2022/03/30 02:31:43;;;;;;;18.05;9.55;;;;;;;;;;5079885;28;20469;-84
2022/03/30 02:34:10;;;;;;;17.55;9.35;;;;;;;;;;5081877;28;20059;-83
2022/03/30 02:36:36;;;;;;;15.60;9.18;;;;;;;;;;5092919;28;20020;-85
2022/03/30 02:39:03;;;;;;;19.63;10.73;;;;;;;;;;5074866;28;20021;-85
2022/03/30 02:41:29;;;;;;;16.92;9.30;;;;;;;;;;5083130;28;20174;-83
2022/03/30 02:43:55;;;;;;;17.42;9.73;;;;;;;;;;5081156;28;20478;-84
2022/03/30 02:46:20;;;;;;;17.77;9.52;;;;;;;;;;5077675;28;20027;-83
2022/03/30 02:48:46;;;;;;;16.25;10.68;;;;;;;;;;5078553;28;20020;-84
2022/03/30 02:51:11;;;;;;;18.42;10.20;;;;;;;;;;5086244;28;20138;-84
2022/03/30 02:53:37;;;;;;;13.60;9.20;;;;;;;;;;5079559;28;20089;-85
2022/03/30 02:56:04;;;;;;;18.73;9.85;;;;;;;;;;5080232;28;20067;-83
2022/03/30 02:58:30;;;;;;;18.98;9.30;;;;;;;;;;5089995;28;20027;-83
2022/03/30 03:00:56;;;;;;;17.13;9.18;;;;;;;;;;5087600;28;20035;-83
2022/03/30 03:03:23;;;;;;;17.75;9.82;;;;;;;;;;5083837;28;20373;-84
2022/03/30 03:05:48;;;;;;;12.40;8.57;;;;;;;;;;5087643;28;20039;-85
2022/03/30 03:08:14;;;;;;;17.73;9.32;;;;;;;;;;5088329;28;20023;-85
2022/03/30 03:10:42;;;;;;;18.83;9.50;;;;;;;;;;5087180;28;20035;-84
2022/03/30 03:13:08;;;;;;;17.58;9.65;;;;;;;;;;5083637;28;20036;-83
2022/03/30 03:15:35;;;;;;;16.88;9.55;;;;;;;;;;5084382;28;20391;-84
2022/03/30 03:18:01;;;;;;;15.30;8.80;;;;;;;;;;5083402;28;20024;-84
2022/03/30 03:20:28;;;;;;;14.98;9.98;;;;;;;;;;5086579;28;20355;-84
2022/03/30 03:22:55;;;;;;;13.98;9.38;;;;;;;;;;5081273;28;20028;-85
2022/03/30 03:25:21;;;;;;;13.38;8.80;;;;;;;;;;5087584;28;20048;-84
2022/03/30 03:27:47;;;;;;;16.92;9.65;;;;;;;;;;5085982;28;20055;-85
2022/03/30 03:30:13;;;;;;;14.23;7.97;;;;;;;;;;5086907;28;20380;-85
2022/03/30 03:32:39;;;;;;;15.52;9.20;;;;;;;;;;5086155;28;20024;-85
2022/03/30 03:35:05;;;;;;;14.07;8.70;;;;;;;;;;5083093;28;20028;-85
2022/03/30 03:37:30;;;;;;;13.40;7.65;;;;;;;;;;5082924;28;20021;-84
2022/03/30 03:39:56;;;;;;;13.98;9.30;;;;;;;;;;5085320;28;20052;-85
2022/03/30 03:42:21;;;;;;;18.60;8.70;;;;;;;;;;5089553;28;20107;-84
2022/03/30 03:44:47;;;;;;;15.93;9.05;;;;;;;;;;5086059;28;20052;-84
2022/03/30 03:47:13;;;;;;;15.25;8.55;;;;;;;;;;5082085;28;20020;-83
2022/03/30 03:49:39;;;;;;;16.00;9.25;;;;;;;;;;5079167;28;20028;-85
2022/03/30 03:52:06;;;;;;;14.40;8.10;;;;;;;;;;5089575;28;20020;-86
2022/03/30 03:54:32;;;;;;;17.30;8.45;;;;;;;;;;5087716;28;20036;-84
2022/03/30 03:56:57;;;;;;;11.88;8.80;;;;;;;;;;5085061;28;20419;-85
2022/03/30 03:59:23;;;;;;;13.40;8.18;;;;;;;;;;5085426;28;20175;-84
2022/03/30 04:01:49;;;;;;;12.30;8.65;;;;;;;;;;5081128;28;20016;-83
2022/03/30 04:04:16;;;;;;;13.40;8.73;;;;;;;;;;5083705;28;20020;-85
2022/03/30 04:06:42;;;;;;;16.05;9.00;;;;;;;;;;5079037;28;20031;-84
2022/03/30 04:09:07;;;;;;;17.02;9.02;;;;;;;;;;5084270;28;20476;-85
2022/03/30 04:11:33;;;;;;;14.38;8.35;;;;;;;;;;5085233;28;20079;-85
2022/03/30 04:13:58;;;;;;;19.63;8.98;;;;;;;;;;5084036;28;20452;-85
2022/03/30 04:16:24;;;;;;;13.88;8.93;;;;;;;;;;5084118;28;20539;-85
2022/03/30 04:18:49;;;;;;;15.82;8.27;;;;;;;;;;5078656;28;20376;-84
2022/03/30 04:21:15;;;;;;;16.58;7.93;;;;;;;;;;5090402;28;20142;-85
2022/03/30 04:23:41;;;;;;;15.90;8.05;;;;;;;;;;5082558;28;20021;-85
2022/03/30 04:26:09;;;;;;;24.38;8.65;;;;;;;;;;5083319;28;20439;-85
2022/03/30 04:28:40;;;;;;;14.68;8.55;;;;;;;;;;5082305;28;20491;-85
2022/03/30 04:31:10;;;;;;;10.88;7.43;;;;;;;;;;5081584;28;20516;-85
2022/03/30 04:33:36;;;;;;;;;;;;;;;;;;5079338;28;20024;-86
2022/03/30 04:36:03;;;;;;;10.10;6.97;;;;;;;;;;5086094;28;19977;-86
2022/03/30 04:38:28;;;;;;;16.88;7.22;;;;;;;;;;5085426;28;20077;-85
2022/03/30 04:40:54;;;;;;;16.73;7.60;;;;;;;;;;5086968;28;20049;-86
2022/03/30 04:43:19;;;;;;;10.43;6.93;;;;;;;;;;5080216;28;20042;-85
2022/03/30 04:45:45;;;;;;;14.50;7.35;;;;;;;;;;5082038;28;20024;-84
2022/03/30 04:48:10;;;;;;;12.70;6.93;;;;;;;;;;5084705;28;20454;-85
2022/03/30 04:50:36;;;;;;;13.98;6.32;;;;;;;;;;5081283;28;20081;-85
2022/03/30 04:53:01;;;;;;;14.10;7.05;;;;;;;;;;5083954;28;20032;-84
2022/03/30 04:55:27;;;;;;;15.32;8.15;;;;;;;;;;5083943;28;20035;-86
2022/03/30 04:57:52;;;;;;;15.68;7.68;;;;;;;;;;5078527;28;20037;-85
2022/03/30 05:00:18;;;;;;;15.13;7.57;;;;;;;;;;5081276;28;20021;-85
2022/03/30 05:02:44;;;;;;;18.65;8.35;;;;;;;;;;5082849;28;20723;-86
2022/03/30 05:05:09;;;;;;;14.18;7.43;;;;;;;;;;5080449;28;20035;-87
2022/03/30 05:07:36;;;;;;;11.25;7.20;;;;;;;;;;5084585;28;20690;-85
2022/03/30 05:10:01;;;;;;;14.80;8.15;;;;;;;;;;5085727;28;20024;-86
2022/03/30 05:12:27;;;;;;;17.67;8.48;;;;;;;;;;5082908;28;20038;-85
2022/03/30 05:14:53;;;;;;;15.15;9.05;;;;;;;;;;5083721;28;20472;-85
2022/03/30 05:17:18;;;;;;;23.15;10.02;;;;;;;;;;5080100;28;20034;-88
2022/03/30 05:19:44;;;;;;;18.23;10.75;;;;;;;;;;5084480;28;20024;-83
2022/03/30 05:22:13;;;;;;;15.40;10.07;;;;;;;;;;5081014;28;20035;-85
2022/03/30 05:24:38;;;;;;;17.67;10.32;;;;;;;;;;5080426;28;20800;-84
2022/03/30 05:27:04;;;;;;;18.92;11.93;;;;;;;;;;5085356;28;20017;-84
2022/03/30 05:29:30;;;;;;;22.77;12.93;;;;;;;;;;5085015;28;20028;-85
2022/03/30 05:31:56;;;;;;;21.05;11.95;;;;;;;;;;5076108;28;20044;-85
2022/03/30 05:34:22;;;;;;;23.88;11.38;;;;;;;;;;5086105;28;20024;-85
2022/03/30 05:36:48;;;;;;;17.67;12.10;;;;;;;;;;5083200;28;20103;-85
2022/03/30 05:39:13;;;;;;;24.80;12.23;;;;;;;;;;5083493;28;20032;-84
2022/03/30 05:41:39;;;;;;;22.33;11.48;;;;;;;;;;5083627;28;20046;-84
2022/03/30 05:44:04;;;;;;;22.00;12.50;;;;;;;;;;5077049;28;20033;-85
2022/03/30 05:46:30;;;;;;;20.33;11.07;;;;;;;;;;5081598;28;20384;-85
2022/03/30 05:48:55;;;;;;;22.85;12.10;;;;;;;;;;5080173;28;20081;-85
2022/03/30 05:51:21;;;;;;;21.80;12.23;;;;;;;;;;5084236;28;20026;-85
2022/03/30 05:53:47;;;;;;;22.08;13.18;;;;;;;;;;5078154;28;20051;-87
2022/03/30 05:56:13;;;;;;;25.00;12.68;;;;;;;;;;5080080;28;20471;-86
2022/03/30 05:58:38;;;;;;;26.00;12.85;;;;;;;;;;5082893;28;20050;-87
2022/03/30 06:01:06;;;;;;;25.67;12.82;;;;;;;;;;5081133;28;20036;-87
2022/03/30 06:03:37;;;;;;;21.27;12.27;;;;;;;;;;5079495;28;20099;-85
2022/03/30 06:06:05;;;;;;;27.58;14.43;;;;;;;;;;5080648;28;21998;-86
2022/03/30 06:08:32;;;;;;;27.60;13.63;;;;;;;;;;5080135;28;20024;-84
2022/03/30 06:10:57;;;;;;;24.45;12.48;;;;;;;;;;5078992;28;20086;-84
2022/03/30 06:13:23;;;;;;;26.35;12.70;;;;;;;;;;5084290;28;20104;-85
2022/03/30 06:15:48;;;;;;;23.05;12.90;;;;;;;;;;5083361;28;20028;-86
2022/03/30 06:18:14;;;;;;;23.92;13.13;;;;;;;;;;5080158;28;21339;-85
2022/03/30 06:20:41;;;;;;;27.33;12.80;;;;;;;;;;5081349;28;20062;-84
2022/03/30 06:23:06;;;;;;;23.60;12.07;;;;;;;;;;5076773;28;20108;-85
2022/03/30 06:25:32;;;;;;;27.23;14.45;;;;;;;;;;5081478;28;20485;-83
2022/03/30 06:27:58;;;;;;;22.13;13.20;;;;;;;;;;5082487;28;20040;-84
2022/03/30 06:30:25;;;;;;;24.13;12.20;;;;;;;;;;5082129;28;20085;-85
2022/03/30 06:32:51;;;;;;;18.42;11.43;;;;;;;;;;5086475;28;20032;-84
2022/03/30 06:35:20;;;;;;;23.35;12.00;;;;;;;;;;5082135;28;20024;-86
2022/03/30 06:37:47;;;;;;;29.25;12.45;;;;;;;;;;5076455;28;20032;-85
2022/03/30 06:40:17;;;;;;;20.10;11.23;;;;;;;;;;5079373;28;20048;-84
2022/03/30 06:42:44;;;;;;;20.50;10.98;;;;;;;;;;5075733;28;20446;-84
2022/03/30 06:45:11;;;;;;;22.35;12.13;;;;;;;;;;5079244;28;20530;-84
2022/03/30 06:47:36;;;;;;;27.42;14.55;;;;;;;;;;5089038;28;20051;-85
2022/03/30 06:50:05;;;;;;;35.08;14.32;;;;;;;;;;5080764;28;20420;-88
2022/03/30 06:52:32;;;;;;;23.75;14.45;;;;;;;;;;5081633;28;20082;-86
2022/03/30 06:54:59;;;;;;;39.08;17.75;;;;;;;;;;5087707;28;20052;-85
2022/03/30 06:57:24;;;;;;;30.05;16.33;;;;;;;;;;5074518;28;20021;-85
2022/03/30 06:59:50;;;;;;;28.95;15.63;;;;;;;;;;5079186;28;20078;-87
2022/03/30 07:02:15;;;;;;;28.40;14.05;;;;;;;;;;5081695;28;20070;-86
2022/03/30 07:04:48;;;;;;;32.28;16.23;;;;;;;;;;5084753;28;20430;-85
2022/03/30 07:10:15;;;;;;;27.20;14.57;;;;;;;;;;5075487;28;20446;-83
2022/03/30 07:12:45;;;;;;;61.30;25.70;;;;;;;;;;5075499;28;20031;-82
2022/03/30 07:15:11;;;;;;;36.75;17.63;;;;;;;;;;5083787;28;20060;-85
2022/03/30 07:17:53;;;;;;;45.53;20.83;;;;;;;;;;5075981;28;20067;-83
2022/03/30 07:20:20;;;;;;;31.30;13.73;;;;;;;;;;5086445;28;20020;-84
2022/03/30 07:22:50;;;;;;;29.00;14.80;;;;;;;;;;5075200;28;20109;-85
2022/03/30 07:25:17;;;;;;;30.70;17.80;;;;;;;;;;5077675;28;20499;-84
2022/03/30 07:27:44;;;;;;;33.03;16.83;;;;;;;;;;5078049;28;20063;-83
2022/03/30 07:30:12;;;;;;;22.50;13.23;;;;;;;;;;5084569;28;20020;-83
2022/03/30 07:32:39;;;;;;;37.03;17.40;;;;;;;;;;5079237;28;20028;-85
2022/03/30 07:35:06;;;;;;;21.13;14.27;;;;;;;;;;5080500;28;20111;-84
2022/03/30 07:37:32;;;;;;;29.00;14.68;;;;;;;;;;5084446;28;20452;-83
2022/03/30 07:39:59;;;;;;;32.70;15.60;;;;;;;;;;5078470;28;20058;-84
2022/03/30 07:42:25;;;;;;;25.38;13.15;;;;;;;;;;5084319;28;20024;-84
2022/03/30 07:44:51;;;;;;;25.75;12.93;;;;;;;;;;5082144;28;20032;-81
2022/03/30 07:47:17;;;;;;;29.15;14.93;;;;;;;;;;5078599;28;20116;-85
2022/03/30 07:49:43;;;;;;;37.03;16.23;;;;;;;;;;5079719;28;20021;-85
2022/03/30 07:52:09;;;;;;;23.90;11.80;;;;;;;;;;5074927;28;20025;-82
2022/03/30 07:54:34;;;;;;;20.92;10.75;;;;;;;;;;5083904;28;20028;-84
2022/03/30 07:57:00;;;;;;;18.27;10.60;;;;;;;;;;5077972;28;20111;-83
2022/03/30 07:59:25;;;;;;;20.35;11.25;;;;;;;;;;5077834;28;20121;-82
2022/03/30 08:01:53;;;;;;;22.92;11.45;;;;;;;;;;5077358;28;20024;-84
2022/03/30 08:04:19;;;;;;;18.65;10.90;;;;;;;;;;5072973;28;20473;-85
2022/03/30 08:06:45;;;;;;;22.95;12.45;;;;;;;;;;5070061;28;20031;-85
2022/03/30 08:09:10;;;;;;;25.30;12.90;;;;;;;;;;5068259;28;20024;-85
2022/03/30 08:11:36;;;;;;;19.33;10.85;;;;;;;;;;5074049;28;20098;-82
2022/03/30 08:14:02;;;;;;;23.77;9.60;;;;;;;;;;5076934;28;20473;-85
2022/03/30 08:16:27;;;;;;;18.92;11.23;;;;;;;;;;5075354;28;20433;-83
2022/03/30 08:18:53;;;;;;;17.60;10.40;;;;;;;;;;5069129;28;20032;-82
2022/03/30 08:24:03;;;;;;;20.23;10.20;;;;;;;;;;5078046;28;20030;-83
2022/03/30 08:26:31;;;;;;;18.05;10.65;;;;;;;;;;5078653;28;20451;-84
2022/03/30 08:28:56;;;;;;;22.75;12.38;;;;;;;;;;5076504;28;20338;-83
2022/03/30 08:31:22;;;;;;;19.55;10.98;;;;;;;;;;5073962;28;20030;-85
2022/03/30 08:33:47;;;;;;;26.33;11.55;;;;;;;;;;5073747;28;20027;-83
2022/03/30 08:36:13;;;;;;;20.50;11.27;;;;;;;;;;5068487;28;20048;-82
2022/03/30 08:38:38;;;;;;;19.67;11.50;;;;;;;;;;5080413;28;20028;-83
2022/03/30 08:41:04;;;;;;;21.58;10.65;;;;;;;;;;5076838;28;20102;-82
2022/03/30 08:43:29;;;;;;;21.48;11.60;;;;;;;;;;5072958;28;20035;-80
2022/03/30 08:45:58;;;;;;;37.80;16.70;;;;;;;;;;5073287;28;20071;-85
2022/03/30 08:48:23;;;;;;;22.10;11.07;;;;;;;;;;5071701;28;20025;-80
2022/03/30 08:50:51;;;;;;;23.80;11.00;;;;;;;;;;5080660;28;20021;-83
2022/03/30 08:53:18;;;;;;;20.95;9.98;;;;;;;;;;5074876;28;20096;-82
2022/03/30 08:55:44;;;;;;;16.33;11.25;;;;;;;;;;5073774;28;20028;-83
2022/03/30 08:58:09;;;;;;;20.65;10.52;;;;;;;;;;5071096;28;20111;-83
2022/03/30 09:00:35;;;;;;;19.70;10.13;;;;;;;;;;5072669;28;20103;-85
2022/03/30 09:03:03;;;;;;;26.38;10.60;;;;;;;;;;5075745;28;20028;-84
2022/03/30 09:05:31;;;;;;;24.55;10.23;;;;;;;;;;5077433;28;20023;-85
2022/03/30 09:08:21;;;;;;;17.63;9.20;;;;;;;;;;5071352;28;20033;-85
2022/03/30 09:10:47;;;;;;;;;;;;;;;;;;5071570;28;21457;-86
2022/03/30 09:13:20;;;;;;;17.98;10.05;;;;;;;;;;5072813;28;19912;-85
2022/03/30 09:15:48;;;;;;;22.73;10.02;;;;;;;;;;5072308;28;20090;-84
2022/03/30 09:18:17;;;;;;;20.13;10.20;;;;;;;;;;5066809;28;20020;-84
2022/03/30 09:20:54;;;;;;;19.52;9.65;;;;;;;;;;5067671;28;20025;-85
2022/03/30 09:23:19;;;;;;;17.42;9.82;;;;;;;;;;5069658;28;20499;-84
2022/03/30 09:25:47;;;;;;;18.15;10.57;;;;;;;;;;5073848;28;20028;-84
2022/03/30 09:28:16;;;;;;;17.38;9.80;;;;;;;;;;5068556;28;20029;-83
2022/03/30 09:30:42;;;;;;;19.38;9.60;;;;;;;;;;5068731;28;20024;-84
2022/03/30 09:33:10;;;;;;;21.90;10.52;;;;;;;;;;5073274;28;20085;-83
2022/03/30 09:35:38;;;;;;;20.75;8.73;;;;;;;;;;5070403;28;20055;-85
2022/03/30 09:38:08;;;;;;;19.05;8.68;;;;;;;;;;5074002;28;20048;-83
2022/03/30 09:40:57;;;;;;;;;;;;;;;;;;5072207;28;20487;-86
2022/03/30 09:43:30;;;;;;;20.38;9.35;;;;;;;;;;5065867;28;19919;-84
2022/03/30 09:46:02;;;;;;;19.02;9.50;;;;;;;;;;5070803;28;20056;-84
2022/03/30 09:48:31;;;;;;;18.02;9.02;;;;;;;;;;5071749;28;20067;-84
2022/03/30 09:50:58;;;;;;;21.13;9.57;;;;;;;;;;5075583;28;20395;-84
2022/03/30 09:53:28;;;;;;;22.42;8.85;;;;;;;;;;5076852;28;20386;-84
2022/03/30 09:56:01;;;;;;;19.92;9.52;;;;;;;;;;5077489;28;20016;-85
2022/03/30 09:58:29;;;;;;;22.42;10.15;;;;;;;;;;5077525;28;20078;-86
2022/03/30 10:01:09;;;;;;;23.20;9.38;;;;;;;;;;5083873;28;20055;-82
2022/03/30 10:03:45;;;;;;;17.30;8.43;;;;;;;;;;5072777;28;20042;-84
2022/03/30 10:06:13;;;;;;;20.30;9.43;;;;;;;;;;5090121;28;20370;-84
2022/03/30 10:08:51;;;;;;;21.13;9.93;;;;;;;;;;5077643;28;20089;-85
2022/03/30 10:11:17;;;;;;;27.52;10.05;;;;;;;;;;5074151;28;20028;-87
2022/03/30 10:13:48;;;;;;;18.90;9.80;;;;;;;;;;5081540;28;20020;-86
2022/03/30 10:16:17;;;;;;;23.20;9.75;;;;;;;;;;5075749;28;20036;-83
2022/03/30 10:18:42;;;;;;;17.73;9.80;;;;;;;;;;5077848;28;20113;-82
2022/03/30 10:21:19;;;;;;;23.27;10.38;;;;;;;;;;5080857;28;20443;-86
2022/03/30 10:24:15;;;;;;;22.48;11.48;;;;;;;;;;5078128;28;20411;-83
2022/03/30 10:26:53;;;;;;;28.85;9.57;;;;;;;;;;5071558;28;20035;-81
2022/03/30 10:29:24;;;;;;;22.33;9.63;;;;;;;;;;5075347;28;20028;-85
2022/03/30 10:32:12;;;;;;;18.30;9.75;;;;;;;;;;5079476;28;20765;-85
2022/03/30 10:34:49;;;;;;;22.95;8.13;;;;;;;;;;5072559;28;20036;-85
2022/03/30 10:37:27;;;;;;;21.30;8.63;;;;;;;;;;5068877;28;20223;-83
2022/03/30 10:39:53;;;;;;;16.83;8.20;;;;;;;;;;5076362;28;20072;-85
2022/03/30 10:42:19;;;;;;;26.92;11.05;;;;;;;;;;5075552;28;20100;-84
2022/03/30 10:44:47;;;;;;;12.50;7.55;;;;;;;;;;5076046;28;20536;-85
2022/03/30 10:47:17;;;;;;;21.58;8.50;;;;;;;;;;5072312;28;20020;-82
2022/03/30 10:49:57;;;;;;;25.83;10.38;;;;;;;;;;5077603;28;20028;-84
2022/03/30 10:52:25;;;;;;;17.10;9.15;;;;;;;;;;5070611;28;20044;-84
2022/03/30 10:55:11;;;;;;;12.52;6.15;;;;;;;;;;5071128;28;20051;-83
2022/03/30 10:57:53;;;;;;;10.05;6.05;;;;;;;;;;5073449;28;20430;-84
2022/03/30 11:00:24;;;;;;;20.30;10.32;;;;;;;;;;5067564;28;20032;-85
2022/03/30 11:02:50;;;;;;;16.23;7.47;;;;;;;;;;5077183;28;20024;-88
2022/03/30 11:05:30;;;;;;;18.27;7.35;;;;;;;;;;5095520;28;20381;-84
2022/03/30 11:07:55;;;;;;;;;;;;;;;;;;5073434;28;20925;-83
2022/03/30 11:10:24;;;;;;;28.67;12.27;;;;;;;;;;5077828;28;19920;-84
2022/03/30 11:13:05;;;;;;;15.30;8.60;;;;;;;;;;5082046;28;20024;-85
2022/03/30 11:15:59;;;;;;;21.08;9.20;;;;;;;;;;5078952;28;20028;-83
2022/03/30 11:18:28;;;;;;;17.80;7.55;;;;;;;;;;5084070;28;20028;-84
2022/03/30 11:21:11;;;;;;;16.43;6.93;;;;;;;;;;5075824;28;20115;-84
2022/03/30 11:23:37;;;;;;;12.70;5.53;;;;;;;;;;5082019;28;20679;-83
2022/03/30 11:26:03;;;;;;;17.20;7.03;;;;;;;;;;5076533;28;20532;-84
2022/03/30 11:28:40;;;;;;;12.10;5.53;;;;;;;;;;5080011;28;20104;-84
2022/03/30 11:31:23;;;;;;;10.85;5.63;;;;;;;;;;5081290;28;20450;-82
2022/03/30 11:34:26;;;;;;;15.43;7.00;;;;;;;;;;5082355;28;20465;-83
2022/03/30 11:36:53;;;;;;;9.60;4.75;;;;;;;;;;5075486;28;20028;-85
2022/03/30 11:39:34;;;;;;;10.27;5.47;;;;;;;;;;5076833;28;20028;-87
2022/03/30 11:42:00;;;;;;;12.35;4.68;;;;;;;;;;5074574;28;20066;-84
2022/03/30 11:47:19;;;;;;;8.50;4.30;;;;;;;;;;5080692;28;20039;-82
2022/03/30 11:49:51;;;;;;;9.38;4.78;;;;;;;;;;5075230;28;20040;-87
2022/03/30 11:52:18;;;;;;;7.20;3.90;;;;;;;;;;5082732;28;20036;-87
2022/03/30 11:54:47;;;;;;;14.15;7.03;;;;;;;;;;5074405;28;20025;-83
2022/03/30 11:57:15;;;;;;;12.45;5.68;;;;;;;;;;5079502;28;20028;-82
2022/03/30 11:59:40;;;;;;;8.38;3.85;;;;;;;;;;5081811;28;20032;-86
2022/03/30 12:02:07;;;;;;;9.55;3.53;;;;;;;;;;5087881;28;20031;-85
2022/03/30 12:04:33;;;;;;;9.45;3.10;;;;;;;;;;5080686;28;20020;-83
2022/03/30 12:06:59;;;;;;;10.05;3.70;;;;;;;;;;5081027;28;20127;-83
2022/03/30 12:09:24;;;;;;;8.25;3.53;;;;;;;;;;5082980;28;20116;-85
2022/03/30 12:11:50;;;;;;;10.77;3.40;;;;;;;;;;5082337;28;20020;-84
2022/03/30 12:14:27;;;;;;;7.30;3.15;;;;;;;;;;5085254;28;20060;-84
2022/03/30 12:16:53;;;;;;;4.88;2.90;;;;;;;;;;5083024;28;20027;-83
2022/03/30 12:19:19;;;;;;;8.48;3.25;;;;;;;;;;5084827;28;20479;-83
2022/03/30 12:21:45;;;;;;;7.43;3.58;;;;;;;;;;5076163;28;20038;-83
2022/03/30 12:24:12;;;;;;;7.22;2.78;;;;;;;;;;5080216;28;20028;-90
2022/03/30 12:26:40;;;;;;;9.73;3.25;;;;;;;;;;5077064;28;20082;-85
2022/03/30 12:29:08;;;;;;;10.65;3.65;;;;;;;;;;5085134;28;20050;-82
2022/03/30 12:31:39;;;;;;;12.05;3.33;;;;;;;;;;5076219;28;20518;-84
2022/03/30 12:34:13;;;;;;;11.57;3.92;;;;;;;;;;5079746;28;20628;-84
2022/03/30 12:36:46;;;;;;;9.45;3.60;;;;;;;;;;5076536;28;20040;-82
2022/03/30 12:39:20;;;;;;;7.95;4.05;;;;;;;;;;5076345;28;20051;-84
2022/03/30 12:41:57;;;;;;;7.40;3.05;;;;;;;;;;5075653;28;20087;-84
2022/03/30 12:44:22;;;;;;;9.80;3.67;;;;;;;;;;5082356;28;20108;-83
2022/03/30 12:46:51;;;;;;;9.20;3.33;;;;;;;;;;5077168;28;20424;-83
2022/03/30 12:49:17;;;;;;;10.73;3.73;;;;;;;;;;5078248;28;20031;-83
2022/03/30 12:51:43;;;;;;;7.85;3.53;;;;;;;;;;5077399;28;20036;-84
2022/03/30 12:54:22;;;;;;;10.77;3.90;;;;;;;;;;5072963;28;20071;-87
2022/03/30 12:56:47;;;;;;;8.40;3.47;;;;;;;;;;5113508;27;20020;-86
2022/03/30 12:59:19;;;;;;;7.82;3.35;;;;;;;;;;5078388;28;20042;-84
2022/03/30 13:01:49;;;;;;;6.82;3.65;;;;;;;;;;5082160;28;20021;-85
2022/03/30 13:04:20;;;;;;;10.77;4.28;;;;;;;;;;5079930;28;20032;-81
2022/03/30 13:07:05;;;;;;;9.60;3.70;;;;;;;;;;5075249;28;20099;-81
2022/03/30 13:09:31;;;;;;;8.55;3.10;;;;;;;;;;5083472;28;20103;-83
2022/03/30 13:11:57;;;;;;;7.07;3.20;;;;;;;;;;5075779;28;20107;-84
2022/03/30 13:14:24;;;;;;;7.20;2.95;;;;;;;;;;5081133;28;20031;-84
2022/03/30 13:17:06;;;;;;;17.08;6.00;;;;;;;;;;5076409;28;20027;-82
2022/03/30 13:19:32;;;;;;;13.52;5.10;;;;;;;;;;5074511;28;20035;-84
2022/03/30 13:21:59;;;;;;;15.10;4.80;;;;;;;;;;5073136;28;20055;-84
2022/03/30 13:24:27;;;;;;;8.35;5.05;;;;;;;;;;5075960;28;20028;-83
2022/03/30 13:26:57;;;;;;;7.80;3.38;;;;;;;;;;5083492;28;20153;-85
2022/03/30 13:29:24;;;;;;;9.13;4.50;;;;;;;;;;5079834;28;20595;-85
2022/03/30 13:31:49;;;;;;;6.68;3.83;;;;;;;;;;5072489;28;20085;-86
2022/03/30 13:34:17;;;;;;;13.98;4.90;;;;;;;;;;5074037;28;20103;-84
2022/03/30 13:36:44;;;;;;;15.30;4.53;;;;;;;;;;5078596;28;20023;-84
2022/03/30 13:39:10;;;;;;;11.73;3.72;;;;;;;;;;5067958;28;20032;-86
2022/03/30 13:41:36;;;;;;;7.80;2.90;;;;;;;;;;5085605;28;20044;-85
2022/03/30 13:44:03;;;;;;;15.57;3.72;;;;;;;;;;5078680;28;20020;-83
2022/03/30 13:46:29;;;;;;;10.30;3.83;;;;;;;;;;5066766;28;20028;-83
2022/03/30 13:48:54;;;;;;;6.68;3.38;;;;;;;;;;5073442;28;20028;-85
2022/03/30 13:51:21;;;;;;;12.57;5.95;;;;;;;;;;5073408;28;20024;-83
2022/03/30 13:53:46;;;;;;;10.45;4.10;;;;;;;;;;5073008;28;20055;-84
2022/03/30 13:56:13;;;;;;;16.05;5.55;;;;;;;;;;5080448;28;20036;-84
2022/03/30 13:58:39;;;;;;;14.38;6.10;;;;;;;;;;5078422;28;20024;-86
2022/03/30 14:01:07;;;;;;;12.18;4.57;;;;;;;;;;5073730;28;20028;-85
2022/03/30 14:03:34;;;;;;;12.77;3.53;;;;;;;;;;5081718;28;20365;-85
2022/03/30 14:06:00;;;;;;;10.57;3.83;;;;;;;;;;5079842;28;20036;-84
2022/03/30 14:08:27;;;;;;;9.73;3.25;;;;;;;;;;5077371;28;20511;-85
2022/03/30 14:10:54;;;;;;;10.25;3.60;;;;;;;;;;5077427;28;20028;-84
2022/03/30 14:13:20;;;;;;;10.43;3.00;;;;;;;;;;5080257;28;20062;-85
2022/03/30 14:15:46;;;;;;;12.55;4.93;;;;;;;;;;5082220;28;20024;-84
2022/03/30 14:18:12;;;;;;;10.98;4.32;;;;;;;;;;5082451;28;20476;-84
2022/03/30 14:20:38;;;;;;;13.07;4.97;;;;;;;;;;5077540;28;20020;-86
2022/03/30 14:23:05;;;;;;;10.85;4.03;;;;;;;;;;5077640;28;20101;-85
2022/03/30 14:25:32;;;;;;;12.88;4.03;;;;;;;;;;5073525;28;20016;-86
2022/03/30 14:27:59;;;;;;;7.60;3.15;;;;;;;;;;5078156;28;20157;-82
2022/03/30 14:30:25;;;;;;;7.53;3.28;;;;;;;;;;5081401;28;20474;-85
2022/03/30 14:32:52;;;;;;;11.63;3.55;;;;;;;;;;5078803;28;20105;-83
2022/03/30 14:35:18;;;;;;;12.07;3.33;;;;;;;;;;5079715;28;20028;-87
2022/03/30 14:37:44;;;;;;;8.10;3.42;;;;;;;;;;5080817;28;20040;-85
2022/03/30 14:40:12;;;;;;;12.18;3.90;;;;;;;;;;5080724;28;20040;-86
2022/03/30 14:42:38;;;;;;;12.27;3.47;;;;;;;;;;5080920;28;20024;-83